createdAt,value
2019-04-26T00:02:02.288Z,17.00
2019-04-26T00:04:32.359Z,17.00
2019-04-26T00:07:00.872Z,16.90
2019-04-26T00:09:37.043Z,16.90
2019-04-26T00:15:51.129Z,16.80
2019-04-26T00:18:19.502Z,16.80
2019-04-26T00:20:48.080Z,16.60
2019-04-26T00:23:16.448Z,16.60
2019-04-26T00:25:44.852Z,16.60
2019-04-26T00:28:13.361Z,16.60
2019-04-26T00:30:41.780Z,16.60
2019-04-26T00:33:11.923Z,16.50
2019-04-26T00:35:47.436Z,16.40
2019-04-26T00:38:11.638Z,16.40
2019-04-26T00:40:41.194Z,16.40
2019-04-26T00:43:09.574Z,16.30
2019-04-26T00:45:39.777Z,16.20
2019-04-26T00:48:10.164Z,16.20
2019-04-26T00:50:38.952Z,16.20
2019-04-26T00:53:08.212Z,16.20
2019-04-26T00:55:37.241Z,16.20
2019-04-26T00:58:08.135Z,16.10
2019-04-26T01:00:38.566Z,16.10
2019-04-26T01:03:07.130Z,16.10
2019-04-26T01:05:37.647Z,16.10
2019-04-26T01:08:06.186Z,16.00
2019-04-26T01:10:36.394Z,16.00
2019-04-26T01:13:06.596Z,16.00
2019-04-26T01:15:34.974Z,16.00
2019-04-26T01:18:03.729Z,15.90
2019-04-26T01:20:34.281Z,15.90
2019-04-26T01:23:06.286Z,15.90
2019-04-26T01:25:52.282Z,15.80
2019-04-26T01:28:48.922Z,15.80
2019-04-26T01:31:18.468Z,15.80
2019-04-26T01:36:36.156Z,15.70
2019-04-26T01:39:17.635Z,15.70
2019-04-26T01:41:58.233Z,15.70
2019-04-26T01:44:48.620Z,15.60
2019-04-26T01:47:17.581Z,15.50
2019-04-26T01:49:46.253Z,15.50
2019-04-26T01:52:15.377Z,15.50
2019-04-26T01:54:44.850Z,15.50
2019-04-26T01:57:14.555Z,15.40
2019-04-26T01:59:49.876Z,15.50
2019-04-26T02:02:37.947Z,15.40
2019-04-26T02:05:12.451Z,15.40
2019-04-26T02:07:41.554Z,15.40
2019-04-26T02:10:12.718Z,15.40
2019-04-26T02:12:45.260Z,15.40
2019-04-26T02:15:16.612Z,15.30
2019-04-26T02:17:47.071Z,15.30
2019-04-26T02:21:26.371Z,15.20
2019-04-26T02:23:59.821Z,15.20
2019-04-26T02:26:40.888Z,15.20
2019-04-26T02:29:15.771Z,15.30
2019-04-26T02:31:53.947Z,15.20
2019-04-26T02:34:22.903Z,15.20
2019-04-26T02:36:58.500Z,15.10
2019-04-26T02:39:31.921Z,15.20
2019-04-26T02:42:08.853Z,15.20
2019-04-26T02:44:52.165Z,15.20
2019-04-26T02:47:45.491Z,15.20
2019-04-26T02:50:20.767Z,15.20
2019-04-26T02:52:59.934Z,15.20
2019-04-26T02:56:37.286Z,15.20
2019-04-26T02:59:45.150Z,15.10
2019-04-26T03:02:23.606Z,15.10
2019-04-26T03:05:00.632Z,15.10
2019-04-26T03:08:08.169Z,15.10
2019-04-26T03:10:45.743Z,15.10
2019-04-26T03:13:26.844Z,15.10
2019-04-26T03:16:23.469Z,15.00
2019-04-26T03:19:09.721Z,15.00
2019-04-26T03:22:04.246Z,15.00
2019-04-26T03:25:11.944Z,15.00
2019-04-26T03:28:02.752Z,15.00
2019-04-26T03:30:54.139Z,15.00
2019-04-26T03:34:16.161Z,15.00
2019-04-26T03:37:42.586Z,15.00
2019-04-26T03:40:43.205Z,15.00
2019-04-26T03:43:42.340Z,15.00
2019-04-26T03:46:56.001Z,15.00
2019-04-26T03:49:55.163Z,15.00
2019-04-26T03:53:14.241Z,14.90
2019-04-26T03:56:27.432Z,15.00
2019-04-26T03:59:25.427Z,14.90
2019-04-26T04:02:39.252Z,15.00
2019-04-26T04:05:28.954Z,14.90
2019-04-26T04:08:01.726Z,14.90
2019-04-26T04:10:47.544Z,14.90
2019-04-26T04:14:04.265Z,14.90
2019-04-26T04:17:02.630Z,14.90
2019-04-26T04:20:12.761Z,14.90
2019-04-26T04:22:47.427Z,15.00
2019-04-26T04:25:29.336Z,15.00
2019-04-26T04:28:19.202Z,15.00
2019-04-26T04:31:23.690Z,15.00
2019-04-26T04:34:28.665Z,15.00
2019-04-26T04:37:01.736Z,14.90
2019-04-26T04:40:25.382Z,15.00
2019-04-26T04:43:50.918Z,15.10
2019-04-26T04:47:00.107Z,15.10
2019-04-26T04:50:09.440Z,15.10
2019-04-26T04:53:12.419Z,15.10
2019-04-26T04:56:29.437Z,15.10
2019-04-26T04:59:03.895Z,15.00
2019-04-26T05:02:50.796Z,15.00
2019-04-26T05:06:08.603Z,15.10
2019-04-26T05:09:10.167Z,15.10
2019-04-26T05:11:57.919Z,15.10
2019-04-26T05:15:00.306Z,15.20
2019-04-26T05:17:54.002Z,15.10
2019-04-26T05:20:29.924Z,15.20
2019-04-26T05:23:51.063Z,15.20
2019-04-26T05:27:31.867Z,15.20
2019-04-26T05:30:22.261Z,15.20
2019-04-26T05:33:40.140Z,15.20
2019-04-26T05:37:03.145Z,15.20
2019-04-26T05:39:58.529Z,15.20
2019-04-26T05:43:30.341Z,15.20
2019-04-26T05:47:04.739Z,15.20
2019-04-26T05:50:54.244Z,15.30
2019-04-26T05:54:40.454Z,15.30
2019-04-26T05:57:37.283Z,15.30
2019-04-26T06:01:04.849Z,15.30
2019-04-26T06:04:45.739Z,15.30
2019-04-26T06:07:39.714Z,15.30
2019-04-26T06:10:24.373Z,15.40
2019-04-26T06:13:37.573Z,15.40
2019-04-26T06:17:01.385Z,15.40
2019-04-26T06:20:00.465Z,15.50
2019-04-26T06:22:53.528Z,15.50
2019-04-26T06:25:38.701Z,15.50
2019-04-26T06:28:23.821Z,15.60
2019-04-26T06:31:11.371Z,15.60
2019-04-26T06:34:12.778Z,15.60
2019-04-26T06:37:10.415Z,15.60
2019-04-26T06:40:05.381Z,15.60
2019-04-26T06:43:16.900Z,15.70
2019-04-26T06:46:36.802Z,15.60
2019-04-26T06:49:34.326Z,15.60
2019-04-26T06:52:11.824Z,15.70
2019-04-26T06:55:16.186Z,15.70
2019-04-26T06:58:45.731Z,15.70
2019-04-26T07:01:52.318Z,15.80
2019-04-26T07:04:44.543Z,15.90
2019-04-26T07:08:29.864Z,15.90
2019-04-26T07:12:02.935Z,16.00
2019-04-26T07:15:28.515Z,16.00
2019-04-26T07:18:31.224Z,16.00
2019-04-26T07:21:31.836Z,16.10
2019-04-26T07:24:57.779Z,16.10
2019-04-26T07:28:09.699Z,16.10
2019-04-26T07:31:01.497Z,16.20
2019-04-26T07:34:27.410Z,16.30
2019-04-26T07:38:01.198Z,16.30
2019-04-26T07:41:29.018Z,16.40
2019-04-26T07:44:51.446Z,16.40
2019-04-26T07:48:17.692Z,16.50
2019-04-26T07:51:55.717Z,16.50
2019-04-26T07:55:18.892Z,16.50
2019-04-26T07:58:25.149Z,16.60
2019-04-26T08:01:33.025Z,16.60
2019-04-26T08:04:07.938Z,16.60
2019-04-26T08:06:51.487Z,16.70
2019-04-26T08:09:27.386Z,16.70
2019-04-26T08:12:04.462Z,16.80
2019-04-26T08:14:54.385Z,16.90
2019-04-26T08:17:53.850Z,16.90
2019-04-26T08:20:48.211Z,17.00
2019-04-26T08:23:39.701Z,17.00
2019-04-26T08:26:02.047Z,17.10
2019-04-26T08:28:34.936Z,17.20
2019-04-26T08:31:07.544Z,17.20
2019-04-26T08:33:48.450Z,17.30
2019-04-26T08:36:17.672Z,17.40
2019-04-26T08:38:52.470Z,17.40
2019-04-26T08:41:22.474Z,17.50
2019-04-26T08:44:11.253Z,17.50
2019-04-26T08:47:13.902Z,17.60
2019-04-26T08:50:02.549Z,17.60
2019-04-26T08:52:34.761Z,17.70
2019-04-26T08:55:08.302Z,17.70
2019-04-26T08:57:40.453Z,17.80
2019-04-26T09:00:42.439Z,17.90
2019-04-26T09:03:32.486Z,17.90
2019-04-26T09:06:26.533Z,18.00
2019-04-26T09:08:57.197Z,18.10
2019-04-26T09:11:33.316Z,18.20
2019-04-26T09:14:01.280Z,18.30
2019-04-26T09:16:31.650Z,18.40
2019-04-26T09:19:01.619Z,18.50
2019-04-26T09:21:40.741Z,18.60
2019-04-26T09:24:24.972Z,18.70
2019-04-26T09:27:01.808Z,18.80
2019-04-26T09:29:47.154Z,19.00
2019-04-26T09:32:29.409Z,19.00
2019-04-26T09:34:57.966Z,19.10
2019-04-26T09:37:26.442Z,19.20
2019-04-26T09:39:55.046Z,19.40
2019-04-26T09:42:46.010Z,19.50
2019-04-26T09:45:27.792Z,19.60
2019-04-26T09:48:00.497Z,19.60
2019-04-26T09:50:41.866Z,19.60
2019-04-26T09:53:10.361Z,19.60
2019-04-26T09:55:38.816Z,19.70
2019-04-26T09:58:09.125Z,19.70
2019-04-26T10:00:37.991Z,19.80
2019-04-26T10:03:09.396Z,19.90
2019-04-26T10:05:36.895Z,19.80
2019-04-26T10:08:08.263Z,19.90
2019-04-26T10:10:38.410Z,20.00
2019-04-26T10:13:25.322Z,20.00
2019-04-26T10:16:08.331Z,20.00
2019-04-26T10:18:39.398Z,20.00
2019-04-26T10:21:08.011Z,20.00
2019-04-26T10:23:36.495Z,20.10
2019-04-26T10:26:06.378Z,20.20
2019-04-26T10:28:34.983Z,20.20
2019-04-26T10:31:04.030Z,20.30
2019-04-26T10:33:36.591Z,20.40
2019-04-26T10:36:06.371Z,20.50
2019-04-26T10:38:34.750Z,20.50
2019-04-26T10:41:03.517Z,20.50
2019-04-26T10:43:31.868Z,20.50
2019-04-26T10:46:00.265Z,20.50
2019-04-26T10:48:28.829Z,20.50
2019-04-26T10:50:57.205Z,20.60
2019-04-26T10:54:06.109Z,20.70
2019-04-26T10:56:45.006Z,20.70
2019-04-26T10:59:39.814Z,20.80
2019-04-26T11:02:14.803Z,20.90
2019-04-26T11:04:45.085Z,21.00
2019-04-26T11:07:13.904Z,21.00
2019-04-26T11:09:44.075Z,21.10
2019-04-26T11:12:14.717Z,21.10
2019-04-26T11:14:43.201Z,21.10
2019-04-26T11:17:16.083Z,21.10
2019-04-26T11:19:44.307Z,21.10
2019-04-26T11:22:14.309Z,21.10
2019-04-26T11:24:44.531Z,21.10
2019-04-26T11:27:13.349Z,21.20
2019-04-26T11:29:53.245Z,21.30
2019-04-26T11:32:13.927Z,21.30
2019-04-26T11:34:44.269Z,21.40
2019-04-26T11:37:13.495Z,21.40
2019-04-26T11:39:44.214Z,21.40
2019-04-26T11:42:13.249Z,21.50
2019-04-26T11:44:44.684Z,21.50
2019-04-26T11:47:13.496Z,21.50
2019-04-26T11:49:42.996Z,21.60
2019-04-26T11:52:11.584Z,21.70
2019-04-26T11:54:40.206Z,21.70
2019-04-26T11:57:12.097Z,21.70
2019-04-26T11:59:39.995Z,21.80
2019-04-26T12:02:16.223Z,21.90
2019-04-26T12:04:53.844Z,22.00
2019-04-26T12:07:28.749Z,22.10
2019-04-26T12:09:59.490Z,22.30
2019-04-26T12:12:29.743Z,22.40
2019-04-26T12:14:58.460Z,22.70
2019-04-26T12:17:27.225Z,22.90
2019-04-26T12:19:55.967Z,23.20
2019-04-26T12:22:25.648Z,23.40
2019-04-26T12:24:54.048Z,23.60
2019-04-26T12:27:26.229Z,23.60
2019-04-26T12:29:53.389Z,23.60
2019-04-26T12:32:22.065Z,23.70
2019-04-26T12:34:50.543Z,23.60
2019-04-26T12:37:20.925Z,23.70
2019-04-26T12:39:49.471Z,23.80
2019-04-26T12:42:17.848Z,24.00
2019-04-26T12:44:55.211Z,24.20
2019-04-26T12:47:34.598Z,24.50
2019-04-26T12:50:03.871Z,24.90
2019-04-26T12:52:33.343Z,25.40
2019-04-26T12:55:02.111Z,25.60
2019-04-26T12:57:30.502Z,25.60
2019-04-26T13:00:01.793Z,25.70
2019-04-26T13:02:29.253Z,25.80
2019-04-26T13:04:57.739Z,25.80
2019-04-26T13:07:27.193Z,25.90
2019-04-26T13:10:24.478Z,26.10
2019-04-26T13:13:05.344Z,26.20
2019-04-26T13:16:06.595Z,26.20
2019-04-26T13:18:35.065Z,26.20
2019-04-26T13:21:04.508Z,26.30
2019-04-26T13:23:33.034Z,26.00
2019-04-26T13:26:03.224Z,25.90
2019-04-26T13:28:32.215Z,25.60
2019-04-26T13:31:02.444Z,25.60
2019-04-26T13:33:32.971Z,25.50
2019-04-26T13:36:03.293Z,25.50
2019-04-26T13:38:31.647Z,25.40
2019-04-26T13:41:04.776Z,25.30
2019-04-26T13:43:32.616Z,25.10
2019-04-26T13:46:19.497Z,25.00
2019-04-26T13:48:53.816Z,24.90
2019-04-26T13:51:22.660Z,24.80
2019-04-26T13:53:51.072Z,24.60
2019-04-26T13:56:19.938Z,24.30
2019-04-26T13:58:48.429Z,24.10
2019-04-26T14:01:18.781Z,24.00
2019-04-26T14:03:48.109Z,23.90
2019-04-26T14:06:16.536Z,23.90
2019-04-26T14:08:45.400Z,23.80
2019-04-26T14:11:14.064Z,23.80
2019-04-26T14:13:42.434Z,23.80
2019-04-26T14:16:10.907Z,23.70
2019-04-26T14:18:40.717Z,23.70
2019-04-26T14:21:09.364Z,23.60
2019-04-26T14:24:06.613Z,23.60
2019-04-26T14:26:39.863Z,23.50
2019-04-26T14:29:08.124Z,23.50
2019-04-26T14:31:36.599Z,23.50
2019-04-26T14:34:07.033Z,23.50
2019-04-26T14:36:35.617Z,23.50
2019-04-26T14:39:10.599Z,23.60
2019-04-26T14:41:38.306Z,23.60
2019-04-26T14:44:15.192Z,23.60
2019-04-26T14:46:48.243Z,23.70
2019-04-26T14:49:07.796Z,23.80
2019-04-26T14:51:36.220Z,23.80
2019-04-26T14:54:07.421Z,23.80
2019-04-26T14:56:35.189Z,23.80
2019-04-26T14:59:08.165Z,23.80
2019-04-26T15:02:15.916Z,23.70
2019-04-26T15:04:53.232Z,23.80
2019-04-26T15:07:22.233Z,23.80
2019-04-26T15:09:50.746Z,23.80
2019-04-26T15:12:22.351Z,23.80
2019-04-26T15:14:53.750Z,23.80
2019-04-26T15:17:24.838Z,23.90
2019-04-26T15:19:53.882Z,23.90
2019-04-26T15:22:22.857Z,23.90
2019-04-26T15:24:52.926Z,23.90
2019-04-26T15:27:21.842Z,23.90
2019-04-26T15:29:52.410Z,23.80
2019-04-26T15:32:24.049Z,23.70
2019-04-26T15:34:55.020Z,23.60
2019-04-26T15:37:25.040Z,23.50
2019-04-26T15:40:02.689Z,23.30
2019-04-26T15:42:58.743Z,23.30
2019-04-26T15:45:26.710Z,23.20
2019-04-26T15:48:05.726Z,23.10
2019-04-26T15:50:40.988Z,23.00
2019-04-26T15:53:12.923Z,22.90
2019-04-26T15:55:43.572Z,22.80
2019-04-26T15:58:12.185Z,22.70
2019-04-26T16:00:40.871Z,22.60
2019-04-26T16:03:09.282Z,22.60
2019-04-26T16:05:39.462Z,22.50
2019-04-26T16:08:07.987Z,22.50
2019-04-26T16:10:38.353Z,22.50
2019-04-26T16:13:18.116Z,22.40
2019-04-26T16:15:38.968Z,22.40
2019-04-26T16:18:10.715Z,22.30
2019-04-26T16:20:42.237Z,22.30
2019-04-26T16:23:13.213Z,22.20
2019-04-26T16:25:42.708Z,22.10
2019-04-26T16:28:30.967Z,22.00
2019-04-26T16:31:10.969Z,21.90
2019-04-26T16:33:40.804Z,21.90
2019-04-26T16:36:09.755Z,21.80
2019-04-26T16:38:38.384Z,21.80
2019-04-26T16:41:07.431Z,21.70
2019-04-26T16:43:40.261Z,21.60
2019-04-26T16:46:06.627Z,21.60
2019-04-26T16:48:35.107Z,21.60
2019-04-26T16:51:08.437Z,21.50
2019-04-26T16:53:46.393Z,21.50
2019-04-26T16:56:05.335Z,21.40
2019-04-26T16:58:38.123Z,21.30
2019-04-26T17:01:04.582Z,21.20
2019-04-26T17:03:38.162Z,21.20
2019-04-26T17:06:10.430Z,21.00
2019-04-26T17:08:35.132Z,20.90
2019-04-26T17:11:03.831Z,20.80
2019-04-26T17:13:33.152Z,20.90
2019-04-26T17:16:02.616Z,20.90
2019-04-26T17:18:32.777Z,20.90
2019-04-26T17:21:02.583Z,20.80
2019-04-26T17:23:56.506Z,20.80
2019-04-26T17:26:36.402Z,20.70
2019-04-26T17:29:04.085Z,20.60
2019-04-26T17:31:33.629Z,20.50
2019-04-26T17:34:05.141Z,20.50
2019-04-26T17:36:34.514Z,20.50
2019-04-26T17:39:04.802Z,20.50
2019-04-26T17:41:33.428Z,20.50
2019-04-26T17:44:08.475Z,20.50
2019-04-26T17:46:33.031Z,20.50
2019-04-26T17:49:01.414Z,20.40
2019-04-26T17:51:32.574Z,20.40
2019-04-26T17:54:21.097Z,20.30
2019-04-26T17:56:34.866Z,20.30
2019-04-26T17:59:03.320Z,20.30
2019-04-26T18:01:43.056Z,20.20
2019-04-26T18:04:02.204Z,20.20
2019-04-26T18:06:31.485Z,20.10
2019-04-26T18:08:59.981Z,20.00
2019-04-26T18:11:28.370Z,19.90
2019-04-26T18:13:56.744Z,19.90
2019-04-26T18:16:29.508Z,19.90
2019-04-26T18:19:18.415Z,19.70
2019-04-26T18:22:05.202Z,19.60
2019-04-26T18:24:34.979Z,19.40
2019-04-26T18:27:04.393Z,19.40
2019-04-26T18:29:33.686Z,19.40
2019-04-26T18:32:03.625Z,19.50
2019-04-26T18:34:42.962Z,19.40
2019-04-26T18:37:13.246Z,19.40
2019-04-26T18:39:43.079Z,19.40
2019-04-26T18:42:11.899Z,19.30
2019-04-26T18:44:47.350Z,19.30
2019-04-26T18:47:28.442Z,19.30
2019-04-26T18:49:58.418Z,19.30
2019-04-26T18:52:32.963Z,19.20
2019-04-26T18:55:28.907Z,19.20
2019-04-26T18:57:59.456Z,19.20
2019-04-26T19:00:36.274Z,19.10
2019-04-26T19:03:06.771Z,19.00
2019-04-26T19:05:35.399Z,18.90
2019-04-26T19:08:05.243Z,18.90
2019-04-26T19:10:35.111Z,18.80
2019-04-26T19:13:17.556Z,18.80
2019-04-26T19:15:52.688Z,18.80
2019-04-26T19:18:33.613Z,18.70
2019-04-26T19:21:17.967Z,18.70
2019-04-26T19:23:46.475Z,18.60
2019-04-26T19:26:15.180Z,18.60
2019-04-26T19:28:44.553Z,18.60
2019-04-26T19:31:13.461Z,18.60
2019-04-26T19:33:42.797Z,18.60
2019-04-26T19:36:13.597Z,18.50
2019-04-26T19:38:45.225Z,18.60
2019-04-26T19:41:12.491Z,18.50
2019-04-26T19:43:46.134Z,18.50
2019-04-26T19:46:33.489Z,18.40
2019-04-26T19:49:21.710Z,18.40
2019-04-26T19:52:16.297Z,18.40
2019-04-26T19:55:12.223Z,18.40
2019-04-26T19:57:54.196Z,18.40
2019-04-26T20:00:24.923Z,18.40
2019-04-26T20:02:53.443Z,18.30
2019-04-26T20:05:22.592Z,18.20
2019-04-26T20:07:51.862Z,18.30
2019-04-26T20:10:20.675Z,18.30
2019-04-26T20:12:49.067Z,18.20
2019-04-26T20:15:26.012Z,18.10
2019-04-26T20:17:52.469Z,18.10
2019-04-26T20:20:21.398Z,18.00
2019-04-26T20:22:48.876Z,18.00
2019-04-26T20:25:17.248Z,17.90
2019-04-26T20:27:45.760Z,17.90
2019-04-26T20:30:27.653Z,17.80
2019-04-26T20:32:56.368Z,17.70
2019-04-26T20:35:28.064Z,17.80
2019-04-26T20:38:01.119Z,17.80
2019-04-26T20:40:28.440Z,17.80
2019-04-26T20:43:02.038Z,17.70
2019-04-26T20:45:38.691Z,17.70
2019-04-26T20:47:57.806Z,17.60
2019-04-26T20:50:28.712Z,17.60
2019-04-26T20:53:00.725Z,17.60
2019-04-26T20:55:30.554Z,17.50
2019-04-26T20:57:59.970Z,17.50
2019-04-26T21:00:31.663Z,17.40
2019-04-26T21:03:02.157Z,17.40
2019-04-26T21:05:45.363Z,17.40
2019-04-26T21:08:03.728Z,17.30
2019-04-26T21:10:32.488Z,17.30
2019-04-26T21:13:01.903Z,17.20
2019-04-26T21:15:32.147Z,17.20
2019-04-26T21:18:03.837Z,17.20
2019-04-26T21:20:34.474Z,17.20
2019-04-26T21:23:02.335Z,17.20
2019-04-26T21:25:42.055Z,17.10
2019-04-26T21:28:22.960Z,17.00
2019-04-26T21:31:03.350Z,17.00
2019-04-26T21:33:43.715Z,17.00
2019-04-26T21:36:25.171Z,17.00
2019-04-26T21:39:07.606Z,17.00
2019-04-26T21:41:36.514Z,17.10
2019-04-26T21:44:07.689Z,17.00
2019-04-26T21:46:35.501Z,17.00
2019-04-26T21:49:03.864Z,17.00
2019-04-26T21:51:34.025Z,17.10
2019-04-26T21:54:03.833Z,17.00
2019-04-26T21:56:33.748Z,17.00
2019-04-26T21:59:03.598Z,17.00
2019-04-26T22:01:33.051Z,17.00
2019-04-26T22:04:03.010Z,16.90
2019-04-26T22:06:33.622Z,16.90
2019-04-26T22:09:13.675Z,16.90
2019-04-26T22:11:44.223Z,16.90
2019-04-26T22:14:23.627Z,16.90
2019-04-26T22:17:02.032Z,16.90
2019-04-26T22:19:57.266Z,16.90
2019-04-26T22:22:47.495Z,17.00
2019-04-26T22:25:17.455Z,16.90
2019-04-26T22:27:45.892Z,16.90
2019-04-26T22:30:22.785Z,16.90
2019-04-26T22:32:55.023Z,16.90
2019-04-26T22:35:22.398Z,16.80
2019-04-26T22:37:50.957Z,16.80
2019-04-26T22:40:19.828Z,16.70
2019-04-26T22:42:51.527Z,16.60
2019-04-26T22:45:43.580Z,16.60
2019-04-26T22:48:23.240Z,16.60
2019-04-26T22:50:52.124Z,16.60
2019-04-26T22:53:21.620Z,16.50
2019-04-26T22:55:49.513Z,16.40
2019-04-26T22:58:20.674Z,16.40
2019-04-26T23:00:48.663Z,16.30
2019-04-26T23:03:17.247Z,16.30
2019-04-26T23:05:45.647Z,16.30
2019-04-26T23:08:14.313Z,16.20
2019-04-26T23:10:48.852Z,16.20
2019-04-26T23:13:37.825Z,16.20
2019-04-26T23:16:20.538Z,16.20
2019-04-26T23:19:07.008Z,16.20
2019-04-26T23:21:38.404Z,16.10
2019-04-26T23:24:06.872Z,16.00
2019-04-26T23:26:37.523Z,16.00
2019-04-26T23:29:08.607Z,16.00
2019-04-26T23:31:41.716Z,16.00
2019-04-26T23:34:08.042Z,15.90
2019-04-26T23:36:36.621Z,15.90
2019-04-26T23:39:07.675Z,15.80
2019-04-26T23:41:37.518Z,15.80
2019-04-26T23:44:07.178Z,15.80
2019-04-26T23:46:35.675Z,15.80
2019-04-26T23:49:04.150Z,15.80
2019-04-26T23:51:33.946Z,15.80
2019-04-26T23:54:03.301Z,15.80
2019-04-26T23:56:33.467Z,15.80
2019-04-26T23:59:03.589Z,15.80
